Riverview, Michigan
Current Conditions -  °F | °C
As of 6:54 PM on Saturday 25 Oct 2014 (Local Time) from KONZ Reporting Station
Clear Clear  
Wind Chill: 64°   Ceiling: Unl
Heat Index: 64°   Visibility: 10mi
Dew Point: 18°   Wind: 20mph
Humidity: 16%   Direction: 280°W
Pressure: 29.76"   Gusts: 29mph
Location:  42.18°N, 83.19°W
Report Text: KONZ 252254Z AUTO 28017G25KT 10SM CLR 18/M08 A2976 RMK AO2
Loading
Personal Weather Stations






























Interactive Weather Map
Tropical Storm Tracking
New forecast layout! Learn more

10-Day Weather Forecast

Advertisements
Track Severe Weather on mobile